Time;durP1;ratioP1;P1;durP2;ratioP2;P2;SDS_P1;SDS_P2;PMS_P1;PMS_P2;Temp;Humidity;BMP_temperature;BMP_pressure;BME280_temperature;BME280_humidity;BME280_pressure;Samples;Min_cycle;Max_cycle;Signal;HPM_P1;HPM_P2
2022/03/02 00:01:49;;;;;;;14.07;11.20;;;;;;;;;;5050898;28;20052;-66
2022/03/02 00:04:16;;;;;;;13.23;11.05;;;;;;;;;;5053589;28;20055;-67
2022/03/02 00:06:42;;;;;;;15.05;11.40;;;;;;;;;;5053377;28;20146;-66
2022/03/02 00:09:08;;;;;;;14.75;12.15;;;;;;;;;;5053405;28;20102;-66
2022/03/02 00:11:35;;;;;;;14.07;11.50;;;;;;;;;;5053024;28;20563;-66
2022/03/02 00:14:03;;;;;;;15.70;11.38;;;;;;;;;;5052986;28;20102;-67
2022/03/02 00:16:30;;;;;;;15.27;12.27;;;;;;;;;;5052941;28;20049;-66
2022/03/02 00:18:56;;;;;;;14.68;11.50;;;;;;;;;;5046821;28;20079;-66
2022/03/02 00:21:23;;;;;;;16.35;13.00;;;;;;;;;;5052902;28;20089;-66
2022/03/02 00:23:50;;;;;;;15.23;12.02;;;;;;;;;;5053036;28;20045;-66
2022/03/02 00:26:17;;;;;;;14.35;11.30;;;;;;;;;;5052776;28;20095;-66
2022/03/02 00:28:44;;;;;;;16.10;12.73;;;;;;;;;;5053002;28;20052;-66
2022/03/02 00:31:11;;;;;;;14.55;12.38;;;;;;;;;;5053050;28;20061;-66
2022/03/02 00:33:37;;;;;;;14.68;12.02;;;;;;;;;;5052821;28;20451;-66
2022/03/02 00:36:05;;;;;;;14.40;12.88;;;;;;;;;;5052868;28;20079;-66
2022/03/02 00:38:31;;;;;;;13.52;11.38;;;;;;;;;;5052515;28;20106;-66
2022/03/02 00:40:58;;;;;;;16.80;12.65;;;;;;;;;;5052433;28;20099;-66
2022/03/02 00:43:24;;;;;;;14.73;12.35;;;;;;;;;;5049215;28;20436;-65
2022/03/02 00:45:51;;;;;;;14.25;12.45;;;;;;;;;;5044795;28;20044;-66
2022/03/02 00:48:17;;;;;;;15.10;11.82;;;;;;;;;;5052100;28;20095;-66
2022/03/02 00:50:44;;;;;;;15.32;12.57;;;;;;;;;;5052487;28;20079;-66
2022/03/02 00:53:11;;;;;;;15.50;12.45;;;;;;;;;;5052169;28;20052;-66
2022/03/02 00:55:38;;;;;;;14.25;12.20;;;;;;;;;;5051130;28;20122;-66
2022/03/02 00:58:05;;;;;;;16.65;12.65;;;;;;;;;;5052095;28;20110;-66
2022/03/02 01:00:31;;;;;;;15.20;11.93;;;;;;;;;;5052223;28;20386;-66
2022/03/02 01:02:58;;;;;;;18.33;13.55;;;;;;;;;;5050813;28;20055;-66
2022/03/02 01:05:24;;;;;;;16.88;13.15;;;;;;;;;;5052186;28;20045;-66
2022/03/02 01:07:51;;;;;;;15.65;13.00;;;;;;;;;;5052223;28;20049;-66
2022/03/02 01:10:18;;;;;;;17.00;13.82;;;;;;;;;;5050706;28;20049;-66
2022/03/02 01:12:44;;;;;;;16.48;13.23;;;;;;;;;;5051766;28;20057;-67
2022/03/02 01:15:11;;;;;;;16.10;13.23;;;;;;;;;;5051785;28;20075;-66
2022/03/02 01:17:38;;;;;;;17.10;13.17;;;;;;;;;;5051460;28;20049;-66
2022/03/02 01:20:07;;;;;;;16.27;12.83;;;;;;;;;;5046782;28;20045;-66
2022/03/02 01:22:34;;;;;;;16.35;13.05;;;;;;;;;;5051621;28;20052;-66
2022/03/02 01:25:01;;;;;;;16.57;13.20;;;;;;;;;;5051861;28;20057;-66
2022/03/02 01:27:27;;;;;;;15.77;12.48;;;;;;;;;;5051732;28;20049;-67
2022/03/02 01:29:54;;;;;;;16.75;13.60;;;;;;;;;;5051623;28;20087;-66
2022/03/02 01:32:20;;;;;;;17.50;14.20;;;;;;;;;;5051576;28;20068;-66
2022/03/02 01:34:47;;;;;;;18.67;13.95;;;;;;;;;;5051588;28;20558;-66
2022/03/02 01:37:13;;;;;;;17.48;14.05;;;;;;;;;;5051547;28;20102;-66
2022/03/02 01:39:40;;;;;;;17.98;14.00;;;;;;;;;;5051749;28;20051;-66
2022/03/02 01:42:07;;;;;;;17.45;14.35;;;;;;;;;;5051664;28;20044;-66
2022/03/02 01:44:34;;;;;;;16.50;13.90;;;;;;;;;;5051427;28;20485;-66
2022/03/02 01:47:00;;;;;;;16.70;13.68;;;;;;;;;;5051426;28;20517;-66
2022/03/02 01:49:27;;;;;;;18.08;13.82;;;;;;;;;;5051983;28;20471;-66
2022/03/02 01:51:53;;;;;;;18.40;13.65;;;;;;;;;;5051387;28;20558;-66
2022/03/02 01:54:20;;;;;;;17.42;13.57;;;;;;;;;;5051509;28;20106;-66
2022/03/02 01:56:47;;;;;;;18.00;14.75;;;;;;;;;;5051553;28;20041;-66
2022/03/02 01:59:14;;;;;;;19.52;15.13;;;;;;;;;;5051598;28;20045;-66
2022/03/02 02:01:40;;;;;;;19.17;14.48;;;;;;;;;;5051575;28;20041;-66
2022/03/02 02:04:07;;;;;;;16.55;13.50;;;;;;;;;;5051404;28;20128;-66
2022/03/02 02:06:34;;;;;;;20.20;13.98;;;;;;;;;;5051569;28;20103;-66
2022/03/02 02:09:02;;;;;;;19.05;14.48;;;;;;;;;;5050122;28;20420;-66
2022/03/02 02:11:28;;;;;;;;;;;;;;;;;;5051673;28;20543;-66
2022/03/02 02:13:54;;;;;;;18.75;14.55;;;;;;;;;;5051161;28;19921;-66
2022/03/02 02:16:21;;;;;;;18.88;14.10;;;;;;;;;;5051203;28;20122;-66
2022/03/02 02:18:50;;;;;;;20.23;14.77;;;;;;;;;;5045092;28;20040;-66
2022/03/02 02:21:19;;;;;;;18.88;14.82;;;;;;;;;;5051163;28;20049;-66
2022/03/02 02:23:45;;;;;;;19.42;14.65;;;;;;;;;;5051160;28;20098;-66
2022/03/02 02:26:13;;;;;;;17.27;13.75;;;;;;;;;;5054999;28;20463;-66
2022/03/02 02:28:40;;;;;;;20.33;14.50;;;;;;;;;;5054894;28;20083;-66
2022/03/02 02:31:07;;;;;;;19.80;14.48;;;;;;;;;;5055362;28;20049;-66
2022/03/02 02:33:34;;;;;;;20.17;14.77;;;;;;;;;;5054934;28;20489;-66
2022/03/02 02:36:00;;;;;;;20.73;14.93;;;;;;;;;;5055134;28;20332;-66
2022/03/02 02:38:27;;;;;;;21.95;15.85;;;;;;;;;;5054985;28;20053;-66
2022/03/02 02:40:53;;;;;;;19.15;14.45;;;;;;;;;;5055075;28;20045;-66
2022/03/02 02:43:22;;;;;;;20.02;14.85;;;;;;;;;;5055087;28;20057;-66
2022/03/02 02:45:48;;;;;;;25.20;16.20;;;;;;;;;;5054928;28;20045;-66
2022/03/02 02:48:16;;;;;;;22.83;16.13;;;;;;;;;;5054928;28;20044;-66
2022/03/02 02:50:42;;;;;;;21.25;15.90;;;;;;;;;;5054853;28;20451;-66
2022/03/02 02:53:10;;;;;;;20.95;15.00;;;;;;;;;;5048252;28;20045;-65
2022/03/02 02:55:37;;;;;;;22.90;14.98;;;;;;;;;;5054820;28;20049;-66
2022/03/02 02:58:04;;;;;;;19.80;14.53;;;;;;;;;;5054210;28;20049;-65
2022/03/02 03:00:34;;;;;;;20.75;15.43;;;;;;;;;;5054723;28;20126;-66
2022/03/02 03:03:01;;;;;;;22.58;15.23;;;;;;;;;;5054417;28;20566;-66
2022/03/02 03:05:30;;;;;;;21.83;14.73;;;;;;;;;;5054436;28;20455;-66
2022/03/02 03:07:57;;;;;;;21.33;15.15;;;;;;;;;;5054518;28;20109;-66
2022/03/02 03:10:25;;;;;;;22.88;16.23;;;;;;;;;;5054211;28;20107;-66
2022/03/02 03:12:52;;;;;;;21.73;14.88;;;;;;;;;;5054159;28;20055;-66
2022/03/02 03:15:19;;;;;;;21.38;15.13;;;;;;;;;;5054139;28;20489;-66
2022/03/02 03:17:46;;;;;;;19.58;15.10;;;;;;;;;;5053839;28;20049;-66
2022/03/02 03:20:15;;;;;;;23.02;15.77;;;;;;;;;;5054130;28;20095;-66
2022/03/02 03:22:41;;;;;;;22.45;16.08;;;;;;;;;;5053878;28;20459;-67
2022/03/02 03:25:08;;;;;;;23.33;16.17;;;;;;;;;;5054186;28;20041;-66
2022/03/02 03:27:36;;;;;;;21.77;16.45;;;;;;;;;;5054208;28;20041;-66
2022/03/02 03:30:03;;;;;;;22.67;16.17;;;;;;;;;;5054121;28;20057;-66
2022/03/02 03:32:30;;;;;;;25.70;17.02;;;;;;;;;;5054160;28;20095;-66
2022/03/02 03:34:56;;;;;;;22.73;15.07;;;;;;;;;;5053277;28;20049;-66
2022/03/02 03:37:23;;;;;;;24.30;16.15;;;;;;;;;;5052771;28;20638;-66
2022/03/02 03:39:49;;;;;;;23.48;16.35;;;;;;;;;;5053577;28;20049;-66
2022/03/02 03:42:16;;;;;;;25.98;16.40;;;;;;;;;;5053689;28;20460;-66
2022/03/02 03:44:43;;;;;;;25.23;16.30;;;;;;;;;;5052381;28;20143;-66
2022/03/02 03:47:09;;;;;;;22.75;16.13;;;;;;;;;;5053545;28;20045;-66
2022/03/02 03:49:36;;;;;;;25.63;16.47;;;;;;;;;;5053376;28;20135;-66
2022/03/02 03:52:03;;;;;;;25.50;17.25;;;;;;;;;;5053725;28;20455;-66
2022/03/02 03:54:29;;;;;;;26.60;16.85;;;;;;;;;;5053442;28;20053;-66
2022/03/02 03:56:56;;;;;;;24.88;16.75;;;;;;;;;;5053651;28;20076;-67
2022/03/02 03:59:22;;;;;;;25.83;16.70;;;;;;;;;;5051994;28;20650;-66
2022/03/02 04:01:49;;;;;;;28.10;17.63;;;;;;;;;;5053441;28;20450;-67
2022/03/02 04:04:15;;;;;;;28.33;17.45;;;;;;;;;;5053258;28;20132;-66
2022/03/02 04:06:42;;;;;;;27.60;17.60;;;;;;;;;;5053662;28;20094;-66
2022/03/02 04:09:08;;;;;;;27.50;18.17;;;;;;;;;;5053320;28;20048;-67
2022/03/02 04:11:35;;;;;;;27.83;18.63;;;;;;;;;;5053051;28;20394;-66
2022/03/02 04:14:02;;;;;;;29.57;17.93;;;;;;;;;;5053241;28;20099;-66
2022/03/02 04:16:29;;;;;;;30.23;18.15;;;;;;;;;;5053214;28;20294;-66
2022/03/02 04:18:55;;;;;;;28.73;18.00;;;;;;;;;;5041863;28;20053;-66
2022/03/02 04:21:22;;;;;;;28.33;17.48;;;;;;;;;;5052591;28;20045;-66
2022/03/02 04:23:48;;;;;;;29.75;18.17;;;;;;;;;;5053496;28;20110;-66
2022/03/02 04:26:15;;;;;;;30.92;18.38;;;;;;;;;;5052683;28;20049;-66
2022/03/02 04:28:41;;;;;;;29.05;18.20;;;;;;;;;;5052836;28;20115;-66
2022/03/02 04:31:08;;;;;;;31.73;17.65;;;;;;;;;;5052874;28;20053;-66
2022/03/02 04:33:34;;;;;;;29.67;17.73;;;;;;;;;;5053016;28;20053;-66
2022/03/02 04:36:01;;;;;;;34.17;19.58;;;;;;;;;;5052838;28;20107;-66
2022/03/02 04:38:27;;;;;;;32.35;18.05;;;;;;;;;;5052668;28;20487;-66
2022/03/02 04:40:53;;;;;;;32.72;19.55;;;;;;;;;;5052631;28;20416;-66
2022/03/02 04:43:20;;;;;;;32.20;18.50;;;;;;;;;;5052711;28;20052;-66
2022/03/02 04:45:46;;;;;;;32.40;17.95;;;;;;;;;;5052825;28;20045;-66
2022/03/02 04:48:13;;;;;;;32.38;18.60;;;;;;;;;;5052227;28;20480;-66
2022/03/02 04:50:39;;;;;;;36.15;18.63;;;;;;;;;;5052538;28;20107;-66
2022/03/02 04:53:06;;;;;;;32.70;17.77;;;;;;;;;;5052225;28;20501;-66
2022/03/02 04:55:32;;;;;;;35.10;19.00;;;;;;;;;;5052520;28;20052;-66
2022/03/02 04:58:00;;;;;;;36.30;19.23;;;;;;;;;;5052116;28;20496;-66
2022/03/02 05:00:27;;;;;;;38.22;20.67;;;;;;;;;;5051990;28;20049;-66
2022/03/02 05:02:58;;;;;;;39.72;20.23;;;;;;;;;;5044526;28;20469;-66
2022/03/02 05:05:26;;;;;;;36.45;19.77;;;;;;;;;;5046550;28;20098;-66
2022/03/02 05:07:52;;;;;;;35.17;19.67;;;;;;;;;;5052160;28;20049;-66
2022/03/02 05:10:20;;;;;;;40.83;20.52;;;;;;;;;;5052310;28;20448;-66
2022/03/02 05:12:46;;;;;;;39.28;19.52;;;;;;;;;;5052191;28;20045;-66
2022/03/02 05:15:14;;;;;;;39.95;20.42;;;;;;;;;;5052279;28;20378;-66
2022/03/02 05:17:41;;;;;;;45.30;20.80;;;;;;;;;;5051023;28;20045;-66
2022/03/02 05:20:09;;;;;;;40.28;21.15;;;;;;;;;;5041625;28;20464;-66
2022/03/02 05:22:36;;;;;;;42.58;21.25;;;;;;;;;;5051703;28;20053;-66
2022/03/02 05:25:03;;;;;;;44.63;21.58;;;;;;;;;;5051759;28;20492;-66
2022/03/02 05:27:30;;;;;;;;;;;;;;;;;;5052099;28;20076;-66
2022/03/02 05:29:56;;;;;;;42.80;21.05;;;;;;;;;;5051698;28;20346;-66
2022/03/02 05:32:23;;;;;;;39.55;20.65;;;;;;;;;;5051744;28;20068;-66
2022/03/02 05:34:50;;;;;;;45.97;21.98;;;;;;;;;;5051923;28;20095;-66
2022/03/02 05:37:16;;;;;;;43.33;21.98;;;;;;;;;;5051691;28;20080;-66
2022/03/02 05:39:43;;;;;;;49.08;23.88;;;;;;;;;;5051434;28;20080;-66
2022/03/02 05:42:10;;;;;;;47.78;24.20;;;;;;;;;;5051711;28;20045;-66
2022/03/02 05:44:36;;;;;;;46.67;23.30;;;;;;;;;;5051736;28;20053;-66
2022/03/02 05:47:05;;;;;;;47.90;23.52;;;;;;;;;;5051659;28;20080;-66
2022/03/02 05:49:31;;;;;;;51.40;24.02;;;;;;;;;;5051806;28;20103;-66
2022/03/02 05:51:58;;;;;;;48.00;24.13;;;;;;;;;;5051319;28;20045;-66
2022/03/02 05:54:24;;;;;;;55.72;24.60;;;;;;;;;;5051477;28;20053;-66
2022/03/02 05:56:51;;;;;;;56.65;24.55;;;;;;;;;;5051561;28;20052;-66
2022/03/02 05:59:17;;;;;;;55.72;25.25;;;;;;;;;;5052802;28;20080;-66
2022/03/02 06:01:44;;;;;;;58.95;26.48;;;;;;;;;;5055487;28;20484;-66
2022/03/02 06:04:14;;;;;;;56.40;24.67;;;;;;;;;;5055488;28;20049;-66
2022/03/02 06:06:41;;;;;;;56.53;24.73;;;;;;;;;;5055441;28;20049;-66
2022/03/02 06:09:08;;;;;;;64.78;26.52;;;;;;;;;;5055871;28;20114;-67
2022/03/02 06:11:36;;;;;;;65.47;25.45;;;;;;;;;;5055611;28;20057;-66
2022/03/02 06:14:04;;;;;;;61.58;25.08;;;;;;;;;;5055202;28;20080;-66
2022/03/02 06:16:30;;;;;;;60.47;26.40;;;;;;;;;;5055340;28;20094;-66
2022/03/02 06:18:57;;;;;;;62.90;26.20;;;;;;;;;;5043984;28;20053;-66
2022/03/02 06:21:25;;;;;;;69.97;26.58;;;;;;;;;;5055140;28;20102;-66
2022/03/02 06:23:51;;;;;;;72.68;27.52;;;;;;;;;;5055428;28;20045;-66
2022/03/02 06:26:18;;;;;;;70.72;27.52;;;;;;;;;;5055247;28;20037;-66
2022/03/02 06:28:45;;;;;;;79.95;26.88;;;;;;;;;;5055011;28;20052;-66
2022/03/02 06:31:13;;;;;;;66.30;25.48;;;;;;;;;;5054910;28;20099;-66
2022/03/02 06:33:40;;;;;;;74.25;26.33;;;;;;;;;;5055254;28;20053;-66
2022/03/02 06:36:06;;;;;;;63.75;26.30;;;;;;;;;;5050213;28;20061;-66
2022/03/02 06:38:33;;;;;;;61.67;24.80;;;;;;;;;;5044697;28;20098;-66
2022/03/02 06:41:01;;;;;;;70.57;25.40;;;;;;;;;;5053095;28;20049;-66
2022/03/02 06:43:37;;;;;;;61.58;24.58;;;;;;;;;;5034767;28;20061;-66
2022/03/02 06:46:06;;;;;;;56.10;22.73;;;;;;;;;;5053057;28;20049;-66
2022/03/02 06:48:42;;;;;;;59.42;25.42;;;;;;;;;;5041586;28;20456;-66
2022/03/02 06:51:11;;;;;;;53.60;23.58;;;;;;;;;;5043610;28;20389;-66
2022/03/02 06:53:37;;;;;;;54.05;23.15;;;;;;;;;;5054826;28;20052;-66
2022/03/02 06:56:05;;;;;;;54.63;22.23;;;;;;;;;;5044945;28;20049;-66
2022/03/02 06:58:37;;;;;;;51.67;21.23;;;;;;;;;;5044563;28;20412;-66
2022/03/02 07:01:03;;;;;;;56.25;22.83;;;;;;;;;;5054683;28;20045;-66
2022/03/02 07:03:34;;;;;;;56.20;22.08;;;;;;;;;;5054619;28;20083;-66
2022/03/02 07:06:01;;;;;;;59.83;22.45;;;;;;;;;;5054422;28;20084;-66
2022/03/02 07:08:28;;;;;;;56.45;21.92;;;;;;;;;;5054612;28;20053;-66
2022/03/02 07:10:55;;;;;;;55.72;22.13;;;;;;;;;;5039592;28;20040;-66
2022/03/02 07:13:23;;;;;;;54.83;23.67;;;;;;;;;;5054160;28;20500;-66
2022/03/02 07:15:49;;;;;;;60.78;24.00;;;;;;;;;;5037442;28;20099;-66
2022/03/02 07:18:16;;;;;;;58.88;25.63;;;;;;;;;;5034868;28;20083;-66
2022/03/02 07:20:43;;;;;;;61.72;24.83;;;;;;;;;;5035401;28;20053;-66
2022/03/02 07:23:13;;;;;;;62.10;25.63;;;;;;;;;;5039142;28;20075;-67
2022/03/02 07:25:41;;;;;;;61.80;26.52;;;;;;;;;;5033766;28;20485;-66
2022/03/02 07:28:09;;;;;;;67.93;27.75;;;;;;;;;;5033082;28;20081;-66
2022/03/02 07:30:36;;;;;;;71.45;27.38;;;;;;;;;;5033360;28;20049;-66
2022/03/02 07:33:04;;;;;;;66.68;28.05;;;;;;;;;;5034136;28;20420;-66
2022/03/02 07:35:31;;;;;;;69.45;29.42;;;;;;;;;;5033527;28;20104;-66
2022/03/02 07:37:59;;;;;;;68.75;29.80;;;;;;;;;;5036934;28;20053;-66
2022/03/02 07:40:26;;;;;;;68.72;27.55;;;;;;;;;;5050183;28;20069;-66
2022/03/02 07:42:52;;;;;;;68.10;29.73;;;;;;;;;;5033371;28;20266;-65
2022/03/02 07:45:19;;;;;;;71.32;29.35;;;;;;;;;;5051747;28;20044;-66
2022/03/02 07:47:47;;;;;;;63.75;29.88;;;;;;;;;;5053524;28;20041;-66
2022/03/02 07:50:13;;;;;;;63.13;27.40;;;;;;;;;;5039673;28;20049;-66
2022/03/02 07:52:46;;;;;;;67.28;28.58;;;;;;;;;;5053530;28;20053;-66
2022/03/02 07:55:14;;;;;;;66.97;29.58;;;;;;;;;;5053391;28;20463;-66
2022/03/02 07:57:40;;;;;;;;;;;;;;;;;;5053751;28;20049;-66
2022/03/02 08:00:11;;;;;;;61.72;28.83;;;;;;;;;;5053229;28;19924;-66
2022/03/02 08:02:40;;;;;;;58.50;28.33;;;;;;;;;;5052939;28;20041;-66
2022/03/02 08:05:07;;;;;;;63.88;28.05;;;;;;;;;;5053332;28;20049;-66
2022/03/02 08:07:34;;;;;;;60.05;27.63;;;;;;;;;;5053110;28;20045;-66
2022/03/02 08:10:00;;;;;;;63.60;28.48;;;;;;;;;;5053139;28;20102;-66
2022/03/02 08:12:27;;;;;;;60.70;30.15;;;;;;;;;;5053018;28;20053;-66
2022/03/02 08:14:53;;;;;;;63.47;28.48;;;;;;;;;;5053067;28;20045;-66
2022/03/02 08:17:20;;;;;;;62.65;29.55;;;;;;;;;;5053230;28;20045;-66
2022/03/02 08:19:47;;;;;;;63.17;28.93;;;;;;;;;;5041218;28;20448;-66
2022/03/02 08:22:14;;;;;;;66.50;31.33;;;;;;;;;;5051963;28;20463;-66
2022/03/02 08:24:44;;;;;;;67.53;30.60;;;;;;;;;;5052910;28;20095;-66
2022/03/02 08:27:12;;;;;;;63.20;28.88;;;;;;;;;;5053132;28;20045;-66
2022/03/02 08:29:39;;;;;;;64.20;30.52;;;;;;;;;;5052854;28;20049;-66
2022/03/02 08:32:06;;;;;;;64.53;28.33;;;;;;;;;;5052765;28;20555;-65
2022/03/02 08:34:40;;;;;;;65.40;29.58;;;;;;;;;;5052653;28;20049;-66
2022/03/02 08:37:06;;;;;;;64.20;29.63;;;;;;;;;;5052900;28;20103;-66
2022/03/02 08:39:33;;;;;;;63.97;29.45;;;;;;;;;;5052338;28;20501;-66
2022/03/02 08:41:59;;;;;;;57.22;27.95;;;;;;;;;;5052560;28;20049;-66
2022/03/02 08:44:26;;;;;;;61.65;29.10;;;;;;;;;;5052793;28;20111;-66
2022/03/02 08:46:52;;;;;;;60.20;28.63;;;;;;;;;;5052526;28;20103;-66
2022/03/02 08:49:20;;;;;;;59.67;28.10;;;;;;;;;;5052691;28;20454;-66
2022/03/02 08:51:47;;;;;;;;;;;;;;;;;;5052601;28;20501;-66
2022/03/02 08:54:16;;;;;;;56.92;26.63;;;;;;;;;;5052595;28;19929;-66
2022/03/02 08:56:43;;;;;;;57.33;27.60;;;;;;;;;;5052577;28;20385;-66
2022/03/02 08:59:12;;;;;;;63.00;28.88;;;;;;;;;;5052161;28;20452;-66
2022/03/02 09:01:42;;;;;;;60.13;28.60;;;;;;;;;;5048466;28;20408;-66
2022/03/02 09:04:13;;;;;;;57.97;29.17;;;;;;;;;;5052108;28;20045;-66
2022/03/02 09:06:39;;;;;;;63.53;30.90;;;;;;;;;;5052178;28;20492;-66
2022/03/02 09:09:06;;;;;;;63.63;30.40;;;;;;;;;;5052134;28;20052;-66
2022/03/02 09:11:33;;;;;;;59.95;28.88;;;;;;;;;;5052381;28;20044;-66
2022/03/02 09:14:00;;;;;;;65.63;30.20;;;;;;;;;;5051961;28;20048;-66
2022/03/02 09:16:27;;;;;;;56.45;28.83;;;;;;;;;;5050693;28;20048;-66
2022/03/02 09:18:54;;;;;;;62.10;28.65;;;;;;;;;;5040882;28;20160;-66
2022/03/02 09:21:21;;;;;;;62.47;29.27;;;;;;;;;;5051255;28;20049;-66
2022/03/02 09:23:48;;;;;;;60.58;29.55;;;;;;;;;;5052022;28;20045;-66
2022/03/02 09:26:15;;;;;;;60.60;29.30;;;;;;;;;;5051793;28;20488;-66
2022/03/02 09:28:43;;;;;;;63.10;29.85;;;;;;;;;;5051726;28;20048;-66
2022/03/02 09:31:11;;;;;;;63.47;30.48;;;;;;;;;;5051605;28;20107;-66
2022/03/02 09:33:38;;;;;;;67.45;30.92;;;;;;;;;;5051900;28;20049;-66
2022/03/02 09:36:06;;;;;;;62.00;32.20;;;;;;;;;;5051574;28;20061;-66
2022/03/02 09:38:36;;;;;;;65.28;31.05;;;;;;;;;;5051909;28;20049;-66
2022/03/02 09:41:05;;;;;;;64.55;33.15;;;;;;;;;;5051791;28;20048;-65
2022/03/02 09:43:33;;;;;;;71.45;30.27;;;;;;;;;;5051552;28;20417;-65
2022/03/02 09:46:00;;;;;;;;;;;;;;;;;;5052225;28;20566;-65
2022/03/02 09:48:31;;;;;;;66.85;31.85;;;;;;;;;;5047207;28;19925;-65
2022/03/02 09:50:59;;;;;;;68.38;32.13;;;;;;;;;;5042900;28;20049;-65
2022/03/02 09:53:27;;;;;;;69.18;32.28;;;;;;;;;;5051349;28;20045;-65
2022/03/02 09:55:56;;;;;;;71.07;33.53;;;;;;;;;;5051919;28;20049;-65
2022/03/02 09:58:24;;;;;;;65.25;31.95;;;;;;;;;;5051380;28;20048;-65
2022/03/02 10:00:53;;;;;;;72.22;33.55;;;;;;;;;;5051214;28;20048;-65
2022/03/02 10:03:23;;;;;;;71.30;31.65;;;;;;;;;;5051464;28;20122;-65
2022/03/02 10:05:50;;;;;;;73.40;33.30;;;;;;;;;;5051336;28;20556;-65
2022/03/02 10:08:21;;;;;;;69.65;33.50;;;;;;;;;;5051557;28;20053;-66
2022/03/02 10:10:48;;;;;;;63.58;30.70;;;;;;;;;;5051472;28;20044;-66
2022/03/02 10:13:16;;;;;;;67.80;31.83;;;;;;;;;;5051313;28;20115;-66
2022/03/02 10:15:43;;;;;;;65.40;31.52;;;;;;;;;;5051355;28;20060;-66
2022/03/02 10:18:11;;;;;;;62.17;31.17;;;;;;;;;;5046282;28;20060;-66
2022/03/02 10:20:39;;;;;;;65.28;29.67;;;;;;;;;;5044902;28;20071;-66
2022/03/02 10:23:09;;;;;;;60.40;30.77;;;;;;;;;;5051232;28;20041;-66
2022/03/02 10:25:49;;;;;;;61.25;30.70;;;;;;;;;;5051101;28;20382;-66
2022/03/02 10:28:17;;;;;;;57.33;28.38;;;;;;;;;;5051370;28;20049;-66
2022/03/02 10:30:48;;;;;;;53.78;28.17;;;;;;;;;;5051392;28;20056;-66
2022/03/02 10:33:20;;;;;;;53.08;27.30;;;;;;;;;;5050316;28;20053;-66
2022/03/02 10:35:51;;;;;;;49.63;25.75;;;;;;;;;;5051021;28;20063;-66
2022/03/02 10:38:23;;;;;;;49.72;25.50;;;;;;;;;;5051266;28;20110;-66
2022/03/02 10:40:51;;;;;;;45.17;24.98;;;;;;;;;;5050893;28;20071;-66
2022/03/02 10:43:21;;;;;;;45.13;24.55;;;;;;;;;;5050941;28;20481;-66
2022/03/02 10:45:51;;;;;;;46.55;24.55;;;;;;;;;;5052952;28;20106;-66
2022/03/02 10:48:41;;;;;;;45.08;23.27;;;;;;;;;;5053443;28;20047;-66
2022/03/02 10:51:09;;;;;;;44.63;21.83;;;;;;;;;;5054882;28;20049;-66
2022/03/02 10:53:38;;;;;;;36.58;21.38;;;;;;;;;;5054913;28;20103;-66
2022/03/02 10:56:04;;;;;;;38.10;20.80;;;;;;;;;;5054886;28;20095;-66
2022/03/02 10:58:31;;;;;;;38.05;20.05;;;;;;;;;;5054518;28;20542;-67
2022/03/02 11:01:01;;;;;;;36.33;19.90;;;;;;;;;;5054650;28;20431;-66
2022/03/02 11:03:29;;;;;;;35.08;20.48;;;;;;;;;;5054811;28;20052;-66
2022/03/02 11:05:59;;;;;;;34.38;18.55;;;;;;;;;;5054609;28;20154;-66
2022/03/02 11:08:25;;;;;;;34.85;20.20;;;;;;;;;;5054383;28;20053;-66
2022/03/02 11:10:52;;;;;;;36.42;20.60;;;;;;;;;;5054731;28;20048;-66
2022/03/02 11:13:21;;;;;;;33.00;18.85;;;;;;;;;;5054268;28;20053;-67
2022/03/02 11:15:52;;;;;;;34.15;19.88;;;;;;;;;;5054644;28;20056;-66
2022/03/02 11:18:31;;;;;;;33.78;18.67;;;;;;;;;;5048149;28;20049;-66
2022/03/02 11:21:03;;;;;;;33.63;18.95;;;;;;;;;;5050475;28;20049;-67
2022/03/02 11:23:39;;;;;;;32.50;19.00;;;;;;;;;;5054115;28;20041;-67
2022/03/02 11:26:08;;;;;;;34.65;18.85;;;;;;;;;;5039023;28;20046;-67
2022/03/02 11:28:34;;;;;;;33.67;18.88;;;;;;;;;;5054163;28;20056;-67
2022/03/02 11:31:02;;;;;;;32.53;18.63;;;;;;;;;;5054186;28;20053;-67
2022/03/02 11:33:29;;;;;;;28.50;17.60;;;;;;;;;;5053908;28;20051;-67
2022/03/02 11:36:01;;;;;;;30.70;17.67;;;;;;;;;;5053885;28;20061;-67
2022/03/02 11:38:30;;;;;;;30.83;17.15;;;;;;;;;;5054058;28;20056;-67
2022/03/02 11:40:56;;;;;;;33.75;18.00;;;;;;;;;;5053938;28;20045;-67
2022/03/02 11:43:29;;;;;;;34.20;17.33;;;;;;;;;;5053641;28;20064;-67
2022/03/02 11:45:59;;;;;;;30.58;17.70;;;;;;;;;;5052704;28;20049;-67
2022/03/02 11:48:28;;;;;;;29.20;15.75;;;;;;;;;;5053484;28;20045;-68
2022/03/02 11:51:05;;;;;;;27.70;16.23;;;;;;;;;;5052245;28;20083;-67
2022/03/02 11:53:33;;;;;;;23.50;14.20;;;;;;;;;;5053515;28;20052;-68
2022/03/02 11:56:01;;;;;;;25.92;14.82;;;;;;;;;;5053429;28;20049;-67
2022/03/02 11:58:28;;;;;;;25.98;15.60;;;;;;;;;;5052622;28;20094;-68
2022/03/02 12:01:04;;;;;;;23.60;15.30;;;;;;;;;;5053203;28;20095;-68
2022/03/02 12:03:31;;;;;;;21.50;14.18;;;;;;;;;;5053433;28;20045;-68
2022/03/02 12:06:04;;;;;;;23.02;14.27;;;;;;;;;;5053477;28;20048;-68
2022/03/02 12:08:32;;;;;;;19.83;13.82;;;;;;;;;;5054423;28;20049;-68
2022/03/02 12:11:02;;;;;;;22.15;14.18;;;;;;;;;;5053347;28;20053;-67
2022/03/02 12:13:29;;;;;;;23.23;14.95;;;;;;;;;;5053414;28;20134;-67
2022/03/02 12:15:55;;;;;;;20.00;13.50;;;;;;;;;;5049149;28;20054;-67
2022/03/02 12:18:22;;;;;;;21.65;13.48;;;;;;;;;;5035438;28;20497;-68
2022/03/02 12:20:50;;;;;;;24.45;13.25;;;;;;;;;;5047829;28;20497;-67
2022/03/02 12:23:27;;;;;;;21.40;12.77;;;;;;;;;;5053142;28;20045;-68
2022/03/02 12:25:54;;;;;;;21.80;13.95;;;;;;;;;;5052899;28;20099;-68
2022/03/02 12:28:22;;;;;;;19.73;12.30;;;;;;;;;;5053330;28;20114;-67
2022/03/02 12:30:49;;;;;;;19.25;12.23;;;;;;;;;;5053095;28;20382;-67
2022/03/02 12:33:19;;;;;;;19.75;12.05;;;;;;;;;;5052696;28;20079;-67
2022/03/02 12:35:45;;;;;;;16.80;11.68;;;;;;;;;;5052665;28;20061;-67
2022/03/02 12:38:12;;;;;;;18.98;11.38;;;;;;;;;;5052860;28;20053;-67
2022/03/02 12:40:42;;;;;;;20.17;12.80;;;;;;;;;;5052441;28;20488;-68
2022/03/02 12:43:09;;;;;;;18.85;12.65;;;;;;;;;;5052563;28;20187;-67
2022/03/02 12:45:39;;;;;;;22.02;13.27;;;;;;;;;;5052573;28;20087;-68
2022/03/02 12:48:06;;;;;;;20.63;12.45;;;;;;;;;;5052508;28;20094;-68
2022/03/02 12:50:33;;;;;;;18.05;13.18;;;;;;;;;;5052359;28;20053;-68
2022/03/02 12:53:00;;;;;;;20.98;14.20;;;;;;;;;;5052288;28;20052;-68
2022/03/02 12:55:26;;;;;;;20.95;12.93;;;;;;;;;;5052883;28;20110;-68
2022/03/02 12:57:53;;;;;;;19.63;14.75;;;;;;;;;;5052440;28;20593;-68
2022/03/02 13:00:21;;;;;;;23.65;15.68;;;;;;;;;;5037210;28;20067;-68
2022/03/02 13:02:48;;;;;;;23.30;16.13;;;;;;;;;;5052308;28;20071;-68
2022/03/02 13:05:31;;;;;;;23.00;16.40;;;;;;;;;;5052497;28;20488;-68
2022/03/02 13:07:58;;;;;;;24.40;17.27;;;;;;;;;;5051854;28;20444;-68
2022/03/02 13:10:25;;;;;;;25.48;17.42;;;;;;;;;;5052361;28;20056;-68
2022/03/02 13:12:53;;;;;;;24.30;16.52;;;;;;;;;;5051996;28;20471;-68
2022/03/02 13:15:21;;;;;;;;;;;;;;;;;;5052448;28;20049;-68
2022/03/02 13:18:07;;;;;;;22.55;15.85;;;;;;;;;;5048658;28;19965;-68
2022/03/02 13:20:48;;;;;;;21.90;15.20;;;;;;;;;;5045106;28;20063;-68
2022/03/02 13:23:18;;;;;;;22.15;14.75;;;;;;;;;;5051891;28;20412;-68
2022/03/02 13:26:00;;;;;;;20.33;15.52;;;;;;;;;;5051786;28;20130;-68
2022/03/02 13:28:27;;;;;;;21.52;14.98;;;;;;;;;;5042713;28;20054;-68
2022/03/02 13:31:07;;;;;;;20.35;15.45;;;;;;;;;;5045864;28;20056;-68
2022/03/02 13:33:55;;;;;;;21.52;16.25;;;;;;;;;;5050477;28;20049;-67
2022/03/02 13:36:21;;;;;;;;;;;;;;;;;;5050796;28;20045;-67
2022/03/02 13:38:47;;;;;;;25.60;16.67;;;;;;;;;;5051643;28;19920;-68
2022/03/02 13:41:46;;;;;;;28.35;17.63;;;;;;;;;;5051465;28;20053;-67
2022/03/02 13:44:20;;;;;;;28.15;17.67;;;;;;;;;;5050433;28;20049;-67
2022/03/02 13:47:06;;;;;;;30.35;18.95;;;;;;;;;;5050293;28;20040;-67
2022/03/02 13:49:45;;;;;;;30.30;18.50;;;;;;;;;;5051751;28;20044;-68
2022/03/02 13:52:11;;;;;;;29.35;18.73;;;;;;;;;;5051726;28;20053;-67
2022/03/02 13:54:38;;;;;;;27.90;19.00;;;;;;;;;;5051714;28;20504;-67
2022/03/02 13:57:06;;;;;;;28.98;19.17;;;;;;;;;;5051708;28;20059;-67
2022/03/02 13:59:32;;;;;;;33.70;21.17;;;;;;;;;;5051449;28;20049;-67
2022/03/02 14:01:58;;;;;;;29.17;19.77;;;;;;;;;;5051134;28;20096;-67
2022/03/02 14:04:25;;;;;;;32.13;19.73;;;;;;;;;;5051458;28;20045;-67
2022/03/02 14:06:54;;;;;;;31.08;19.73;;;;;;;;;;5051615;28;20049;-67
2022/03/02 14:09:20;;;;;;;29.10;19.40;;;;;;;;;;5051616;28;20095;-67
2022/03/02 14:11:48;;;;;;;33.28;21.00;;;;;;;;;;5051350;28;20053;-66
2022/03/02 14:14:19;;;;;;;31.50;20.55;;;;;;;;;;5051269;28;20056;-66
2022/03/02 14:16:53;;;;;;;32.45;20.83;;;;;;;;;;5051562;28;20060;-66
2022/03/02 14:19:20;;;;;;;29.30;20.63;;;;;;;;;;5039601;28;20558;-66
2022/03/02 14:21:53;;;;;;;33.33;21.15;;;;;;;;;;5054659;28;20102;-66
2022/03/02 14:24:20;;;;;;;30.08;21.05;;;;;;;;;;5055399;28;20057;-66